Terminal Aerodrome Forecast
Issued by NWS

Home | Current Version | Previous Version | Text Only | Print | Product List | Glossary On
Versions: 1 2 3 4 5 6 7 8 9 10 11 12 13 14 15 16
000
FTUS43 KIND 292320
TAFBMG
TAF
KBMG 292320Z 3000/3024 35005KT P6SM VCSH BKN060
     FM300700 36005KT 5SM -RA BR OVC008
     FM301100 02004KT 3SM -RA BR OVC003
     FM301300 04005KT 3SM -RA BR OVC010
     FM301600 09006KT 5SM -SHRA BR OVC010
     FM302300 13005KT P6SM -SHRA BKN040
      AMD LTD TO CLD VIS AND WIND 3001/3013=

USA.gov is the U.S. government's official web portal to all federal, state and local government web resources and services.